createdAt,value
2023-06-06T00:00:23.753Z,51.32
2023-06-06T00:02:27.889Z,50.87
2023-06-06T00:04:30.736Z,51.26
2023-06-06T00:06:36.841Z,51.46
2023-06-06T00:08:42.967Z,51.43
2023-06-06T00:10:46.104Z,51.78
2023-06-06T00:12:49.170Z,51.40
2023-06-06T00:14:51.808Z,51.60
2023-06-06T00:16:57.291Z,51.70
2023-06-06T00:19:00.092Z,51.77
2023-06-06T00:21:02.984Z,51.72
2023-06-06T00:23:07.616Z,51.47
2023-06-06T00:25:10.478Z,51.62
2023-06-06T00:27:13.220Z,51.89
2023-06-06T00:29:15.971Z,52.45
2023-06-06T00:31:18.709Z,52.91
2023-06-06T00:33:21.525Z,53.21
2023-06-06T00:35:24.407Z,53.82
2023-06-06T00:37:27.197Z,54.27
2023-06-06T00:39:29.982Z,53.88
2023-06-06T00:41:32.803Z,54.09
2023-06-06T00:43:35.633Z,53.74
2023-06-06T00:45:38.335Z,54.31
2023-06-06T00:47:41.078Z,54.06
2023-06-06T00:49:47.496Z,53.70
2023-06-06T00:51:50.693Z,53.99
2023-06-06T00:53:58.064Z,54.11
2023-06-06T00:56:01.167Z,53.84
2023-06-06T00:58:05.652Z,53.83
2023-06-06T01:00:09.675Z,53.71
2023-06-06T01:02:15.878Z,53.56
2023-06-06T01:04:18.581Z,53.91
2023-06-06T01:06:23.796Z,53.96
2023-06-06T01:08:26.628Z,54.16
2023-06-06T01:10:29.801Z,54.55
2023-06-06T01:12:57.570Z,55.28
2023-06-06T01:15:09.331Z,55.20
2023-06-06T01:17:14.676Z,55.43
2023-06-06T01:19:21.390Z,55.94
2023-06-06T01:21:27.309Z,55.90
2023-06-06T01:23:31.810Z,56.13
2023-06-06T01:25:36.915Z,56.46
2023-06-06T01:27:40.614Z,56.51
2023-06-06T01:29:43.415Z,57.00
2023-06-06T01:31:57.552Z,56.85
2023-06-06T01:34:16.710Z,57.09
2023-06-06T01:36:34.711Z,56.86
2023-06-06T01:38:45.923Z,56.94
2023-06-06T01:40:52.597Z,56.43
2023-06-06T01:42:56.628Z,56.66
2023-06-06T01:45:00.858Z,56.72
2023-06-06T01:47:04.824Z,56.33
2023-06-06T01:49:09.474Z,56.15
2023-06-06T01:51:12.729Z,56.54
2023-06-06T01:53:15.677Z,56.23
2023-06-06T01:55:18.639Z,56.47
2023-06-06T01:57:21.559Z,56.41
2023-06-06T01:59:24.274Z,56.27
2023-06-06T02:01:27.741Z,56.32
2023-06-06T02:03:30.891Z,56.44
2023-06-06T02:05:33.790Z,55.85
2023-06-06T02:07:38.802Z,55.97
2023-06-06T02:09:43.484Z,56.06
2023-06-06T02:11:46.356Z,55.66
2023-06-06T02:13:49.128Z,56.06
2023-06-06T02:15:52.770Z,55.84
2023-06-06T02:17:56.979Z,55.83
2023-06-06T02:20:00.124Z,55.27
2023-06-06T02:22:03.021Z,54.93
2023-06-06T02:24:06.155Z,54.43
2023-06-06T02:26:09.092Z,54.25
2023-06-06T02:28:12.598Z,54.09
2023-06-06T02:30:15.531Z,53.94
2023-06-06T02:32:18.330Z,53.13
2023-06-06T02:34:22.948Z,52.48
2023-06-06T02:36:26.989Z,51.53
2023-06-06T02:38:29.730Z,51.03
2023-06-06T02:40:32.551Z,50.73
2023-06-06T02:42:36.781Z,50.55
2023-06-06T02:44:39.533Z,50.27
2023-06-06T02:46:43.380Z,49.63
2023-06-06T02:48:48.884Z,49.26
2023-06-06T02:50:51.623Z,49.32
2023-06-06T02:52:55.586Z,49.27
2023-06-06T02:54:58.263Z,49.26
2023-06-06T02:57:02.230Z,49.29
2023-06-06T02:59:04.980Z,49.69
2023-06-06T03:01:08.085Z,49.42
2023-06-06T03:03:10.914Z,49.28
2023-06-06T03:05:14.911Z,48.32
2023-06-06T03:07:21.792Z,48.24
2023-06-06T03:09:25.854Z,48.20
2023-06-06T03:11:31.905Z,47.99
2023-06-06T03:13:34.644Z,47.77
2023-06-06T03:15:37.373Z,47.60
2023-06-06T03:17:41.525Z,48.91
2023-06-06T03:19:45.397Z,48.30
2023-06-06T03:21:48.122Z,48.07
2023-06-06T03:23:51.832Z,48.30
2023-06-06T03:25:54.997Z,48.63
2023-06-06T03:27:57.652Z,49.88
2023-06-06T03:30:03.612Z,51.08
2023-06-06T03:32:09.465Z,51.77
2023-06-06T03:34:12.302Z,52.39
2023-06-06T03:36:16.484Z,53.14
2023-06-06T03:38:19.741Z,51.81
2023-06-06T03:40:27.143Z,51.83
2023-06-06T03:42:30.011Z,52.63
2023-06-06T03:44:32.887Z,53.36
2023-06-06T03:46:36.269Z,53.30
2023-06-06T03:48:38.908Z,52.47
2023-06-06T03:50:42.292Z,51.92
2023-06-06T03:52:45.279Z,52.90
2023-06-06T03:54:48.353Z,52.97
2023-06-06T03:56:51.597Z,52.40
2023-06-06T03:58:54.568Z,51.84
2023-06-06T04:00:59.578Z,52.16
2023-06-06T04:03:02.602Z,51.27
2023-06-06T04:05:06.827Z,51.59
2023-06-06T04:07:09.545Z,51.10
2023-06-06T04:09:14.732Z,51.13
2023-06-06T04:11:17.496Z,51.30
2023-06-06T04:13:20.184Z,51.31
2023-06-06T04:15:23.092Z,51.07
2023-06-06T04:17:26.500Z,50.79
2023-06-06T04:19:29.650Z,51.12
2023-06-06T04:21:33.695Z,51.34
2023-06-06T04:23:37.161Z,51.50
2023-06-06T04:25:39.938Z,52.20
2023-06-06T04:27:43.012Z,51.79
2023-06-06T04:29:46.682Z,51.43
2023-06-06T04:31:49.370Z,50.65
2023-06-06T04:33:58.252Z,50.59
2023-06-06T04:36:01.656Z,50.89
2023-06-06T04:38:04.391Z,50.47
2023-06-06T04:40:08.491Z,50.90
2023-06-06T04:42:11.222Z,51.33
2023-06-06T04:44:15.672Z,52.06
2023-06-06T04:46:23.588Z,51.77
2023-06-06T04:48:27.160Z,52.54
2023-06-06T04:50:30.881Z,52.20
2023-06-06T04:52:35.725Z,53.10
2023-06-06T04:54:40.822Z,53.43
2023-06-06T04:56:45.368Z,53.49
2023-06-06T04:58:49.913Z,54.27
2023-06-06T05:00:52.671Z,55.09
2023-06-06T05:02:56.259Z,55.00
2023-06-06T05:04:59.969Z,54.99
2023-06-06T05:07:02.790Z,54.46
2023-06-06T05:09:06.434Z,54.24
2023-06-06T05:11:09.651Z,55.03
2023-06-06T05:13:12.621Z,55.17
2023-06-06T05:15:15.557Z,54.21
2023-06-06T05:17:21.697Z,53.85
2023-06-06T05:19:25.096Z,54.22
2023-06-06T05:21:27.897Z,52.77
2023-06-06T05:23:30.960Z,51.77
2023-06-06T05:25:33.755Z,49.99
2023-06-06T05:27:36.559Z,48.49
2023-06-06T05:29:39.563Z,48.04
2023-06-06T05:31:42.264Z,47.44
2023-06-06T05:33:45.067Z,46.85
2023-06-06T05:35:51.797Z,47.67
2023-06-06T05:37:54.635Z,47.05
2023-06-06T05:39:57.360Z,48.25
2023-06-06T05:42:00.242Z,46.46
2023-06-06T05:44:02.927Z,44.92
2023-06-06T05:46:06.585Z,44.60
2023-06-06T05:48:09.916Z,45.97
2023-06-06T05:50:12.603Z,45.32
2023-06-06T05:52:15.612Z,45.21
2023-06-06T05:54:18.541Z,45.19
2023-06-06T05:56:22.884Z,44.36
2023-06-06T05:58:25.846Z,42.94
2023-06-06T06:00:30.327Z,41.78
2023-06-06T06:02:33.129Z,42.42
2023-06-06T06:04:36.316Z,41.93
2023-06-06T06:06:39.979Z,42.44
2023-06-06T06:08:45.793Z,42.03
2023-06-06T06:10:48.534Z,41.63
2023-06-06T06:12:51.283Z,42.04
2023-06-06T06:14:54.007Z,42.07
2023-06-06T06:16:56.760Z,42.46
2023-06-06T06:18:59.442Z,42.71
2023-06-06T06:21:02.557Z,43.01
2023-06-06T06:23:05.311Z,42.76
2023-06-06T06:25:14.006Z,42.30
2023-06-06T06:27:18.643Z,41.58
2023-06-06T06:29:22.674Z,41.75
2023-06-06T06:31:25.451Z,42.56
2023-06-06T06:33:28.813Z,42.43
2023-06-06T06:35:31.552Z,42.30
2023-06-06T06:37:38.557Z,40.43
2023-06-06T06:39:41.297Z,39.83
2023-06-06T06:41:43.976Z,40.29
2023-06-06T06:43:46.663Z,41.27
2023-06-06T06:45:49.536Z,40.72
2023-06-06T06:47:52.505Z,40.46
2023-06-06T06:49:55.327Z,39.27
2023-06-06T06:51:59.366Z,39.33
2023-06-06T06:54:02.084Z,38.88
2023-06-06T06:56:06.205Z,38.26
2023-06-06T06:58:08.938Z,37.97
2023-06-06T07:00:16.720Z,37.32
2023-06-06T07:02:21.297Z,37.25
2023-06-06T07:04:24.088Z,36.28
2023-06-06T07:06:28.654Z,36.05
2023-06-06T07:08:31.886Z,36.17
2023-06-06T07:10:35.379Z,36.06
2023-06-06T07:12:38.491Z,35.74
2023-06-06T07:14:41.354Z,35.78
2023-06-06T07:16:44.954Z,36.18
2023-06-06T07:18:48.668Z,36.11
2023-06-06T07:20:52.738Z,36.01
2023-06-06T07:23:01.393Z,36.40
2023-06-06T07:25:05.694Z,36.65
2023-06-06T07:27:10.185Z,36.45
2023-06-06T07:29:13.231Z,37.00
2023-06-06T07:31:16.669Z,37.17
2023-06-06T07:33:19.807Z,37.00
2023-06-06T07:35:22.598Z,37.37
2023-06-06T07:37:25.785Z,36.21
2023-06-06T07:39:28.519Z,36.20
2023-06-06T07:41:31.489Z,36.05
2023-06-06T07:43:34.305Z,36.22
2023-06-06T07:45:37.056Z,35.75
2023-06-06T07:47:43.475Z,36.00
2023-06-06T07:49:47.211Z,35.87
2023-06-06T07:51:50.113Z,36.36
2023-06-06T07:53:53.518Z,36.69
2023-06-06T07:55:56.722Z,36.56
2023-06-06T07:57:59.685Z,36.43
2023-06-06T08:00:08.088Z,36.59
2023-06-06T08:02:12.049Z,36.37
2023-06-06T08:04:14.894Z,36.67
2023-06-06T08:06:19.501Z,36.53
2023-06-06T08:08:22.376Z,36.79
2023-06-06T08:10:25.399Z,36.60
2023-06-06T08:12:28.209Z,36.76
2023-06-06T08:14:34.004Z,36.07
2023-06-06T08:16:39.255Z,36.06
2023-06-06T08:18:42.080Z,36.25
2023-06-06T08:20:44.851Z,35.13
2023-06-06T08:22:51.559Z,34.94
2023-06-06T08:24:54.329Z,34.99
2023-06-06T08:26:57.701Z,34.90
2023-06-06T08:29:00.994Z,35.60
2023-06-06T08:31:05.191Z,35.36
2023-06-06T08:33:08.253Z,36.06
2023-06-06T08:35:11.773Z,35.40
2023-06-06T08:37:15.684Z,34.68
2023-06-06T08:39:21.243Z,34.74
2023-06-06T08:41:26.411Z,35.17
2023-06-06T08:43:29.254Z,34.33
2023-06-06T08:45:36.033Z,34.39
2023-06-06T08:47:39.389Z,34.59
2023-06-06T08:49:42.785Z,33.71
2023-06-06T08:51:48.608Z,33.72
2023-06-06T08:53:52.029Z,33.09
2023-06-06T08:55:58.519Z,32.85
2023-06-06T08:58:02.365Z,33.33
2023-06-06T09:00:12.654Z,33.57
2023-06-06T09:02:16.538Z,33.44
2023-06-06T09:04:21.955Z,33.35
2023-06-06T09:06:24.891Z,34.33
2023-06-06T09:08:27.810Z,34.31
2023-06-06T09:10:30.682Z,35.35
2023-06-06T09:12:47.757Z,35.83
2023-06-06T09:14:50.590Z,36.39
2023-06-06T09:16:54.198Z,36.30
2023-06-06T09:18:58.782Z,36.34
2023-06-06T09:21:01.855Z,36.10
2023-06-06T09:23:05.546Z,36.73
2023-06-06T09:25:24.914Z,36.69
2023-06-06T09:27:31.341Z,36.96
2023-06-06T09:29:40.169Z,36.74
2023-06-06T09:31:43.573Z,35.76
2023-06-06T09:33:49.815Z,35.10
2023-06-06T09:35:52.654Z,35.10
2023-06-06T09:37:55.602Z,34.58
2023-06-06T09:40:18.674Z,34.18
2023-06-06T09:42:23.213Z,34.01
2023-06-06T09:44:29.680Z,33.66
2023-06-06T09:46:37.822Z,33.37
2023-06-06T09:48:40.701Z,34.02
2023-06-06T09:50:43.892Z,33.08
2023-06-06T09:52:50.570Z,32.79
2023-06-06T09:54:57.230Z,32.89
2023-06-06T09:57:01.053Z,33.01
2023-06-06T09:59:05.415Z,33.39
2023-06-06T10:01:08.991Z,32.62
2023-06-06T10:03:17.947Z,32.33
2023-06-06T10:05:22.372Z,32.58
2023-06-06T10:07:27.576Z,33.17
2023-06-06T10:09:31.171Z,33.17
2023-06-06T10:11:36.322Z,32.87
2023-06-06T10:13:39.705Z,32.71
2023-06-06T10:15:43.658Z,32.67
2023-06-06T10:17:47.884Z,33.43
2023-06-06T10:19:56.958Z,33.26
2023-06-06T10:22:02.174Z,33.84
2023-06-06T10:24:05.776Z,33.75
2023-06-06T10:26:14.703Z,34.22
2023-06-06T10:28:27.189Z,33.66
2023-06-06T10:30:59.647Z,33.76
2023-06-06T10:33:20.929Z,33.45
2023-06-06T10:35:25.828Z,33.00
2023-06-06T10:37:28.692Z,33.54
2023-06-06T10:39:31.775Z,33.71
2023-06-06T10:41:54.817Z,34.36
2023-06-06T10:43:57.969Z,34.22
2023-06-06T10:46:01.432Z,34.00
2023-06-06T10:48:04.954Z,33.45
2023-06-06T10:50:13.771Z,33.40
2023-06-06T10:52:16.941Z,33.92
2023-06-06T10:54:28.721Z,34.18
2023-06-06T10:56:34.392Z,35.03
2023-06-06T10:58:40.024Z,35.99
2023-06-06T11:00:45.401Z,36.44
2023-06-06T11:02:49.140Z,36.93
2023-06-06T11:05:01.178Z,37.13
2023-06-06T11:07:17.920Z,37.07
2023-06-06T11:09:29.878Z,36.44
2023-06-06T11:11:33.757Z,36.68
2023-06-06T11:13:37.831Z,36.15
2023-06-06T11:15:57.215Z,36.50
2023-06-06T11:18:06.730Z,36.10
2023-06-06T11:20:18.600Z,34.34
2023-06-06T11:22:26.840Z,34.05
2023-06-06T11:24:34.893Z,33.55
2023-06-06T11:26:38.967Z,33.41
2023-06-06T11:28:42.272Z,33.74
2023-06-06T11:30:45.536Z,32.69
2023-06-06T11:32:48.476Z,32.54
2023-06-06T11:34:51.787Z,31.99
2023-06-06T11:36:55.363Z,32.25
2023-06-06T11:39:02.466Z,32.38
2023-06-06T11:41:06.106Z,33.10
2023-06-06T11:43:08.910Z,32.63
2023-06-06T11:45:15.772Z,32.33
2023-06-06T11:47:19.060Z,31.38
2023-06-06T11:49:23.671Z,30.44
2023-06-06T11:51:27.135Z,29.04
2023-06-06T11:53:36.108Z,28.92
2023-06-06T11:55:39.834Z,28.54
2023-06-06T11:57:42.974Z,27.20
2023-06-06T11:59:54.509Z,26.83
2023-06-06T12:02:00.496Z,27.26
2023-06-06T12:04:08.315Z,27.14
2023-06-06T12:06:11.884Z,26.64
2023-06-06T12:08:14.793Z,26.78
2023-06-06T12:10:43.709Z,27.26
2023-06-06T12:12:46.686Z,26.80
2023-06-06T12:15:00.206Z,27.87
2023-06-06T12:17:09.713Z,28.64
2023-06-06T12:19:16.673Z,29.50
2023-06-06T12:21:19.838Z,29.75
2023-06-06T12:23:29.636Z,30.71
2023-06-06T12:25:32.436Z,31.47
2023-06-06T12:27:37.752Z,32.14
2023-06-06T12:29:52.251Z,32.51
2023-06-06T12:32:24.213Z,33.65
2023-06-06T12:34:45.305Z,34.28
2023-06-06T12:36:53.189Z,35.04
2023-06-06T12:39:04.552Z,35.65
2023-06-06T12:41:08.062Z,35.60
2023-06-06T12:43:10.946Z,35.80
2023-06-06T12:45:14.270Z,35.91
2023-06-06T12:47:18.768Z,35.27
2023-06-06T12:49:21.734Z,35.90
2023-06-06T12:51:24.621Z,36.19
2023-06-06T12:53:28.225Z,36.16
2023-06-06T12:55:31.326Z,35.93
2023-06-06T12:57:34.152Z,35.44
2023-06-06T12:59:40.593Z,35.84
2023-06-06T13:01:43.797Z,35.65
2023-06-06T13:03:46.873Z,36.21
2023-06-06T13:05:52.235Z,36.48
2023-06-06T13:07:55.012Z,36.81
2023-06-06T13:09:58.018Z,37.35
2023-06-06T13:12:01.096Z,38.04
2023-06-06T13:14:03.994Z,38.34
2023-06-06T13:16:07.084Z,38.36
2023-06-06T13:18:11.000Z,38.96
2023-06-06T13:20:15.518Z,38.62
2023-06-06T13:22:19.448Z,38.59
2023-06-06T13:24:22.539Z,38.75
2023-06-06T13:26:25.875Z,38.85
2023-06-06T13:28:28.637Z,38.95
2023-06-06T13:30:31.690Z,38.83
2023-06-06T13:32:37.779Z,39.30
2023-06-06T13:34:40.749Z,39.38
2023-06-06T13:36:43.572Z,38.87
2023-06-06T13:38:47.054Z,37.72
2023-06-06T13:40:50.578Z,37.82
2023-06-06T13:42:55.798Z,36.70
2023-06-06T13:44:58.739Z,36.74
2023-06-06T13:47:02.388Z,37.09
2023-06-06T13:49:05.557Z,36.29
2023-06-06T13:51:09.228Z,34.49
2023-06-06T13:53:12.033Z,33.70
2023-06-06T13:55:15.413Z,34.30
2023-06-06T13:57:18.492Z,35.41
2023-06-06T13:59:21.705Z,36.02
2023-06-06T14:01:24.577Z,36.23
2023-06-06T14:03:27.601Z,36.95
2023-06-06T14:05:31.092Z,37.21
2023-06-06T14:07:34.665Z,38.12
2023-06-06T14:09:37.821Z,38.42
2023-06-06T14:11:40.588Z,39.18
2023-06-06T14:13:43.400Z,38.86
2023-06-06T14:15:46.217Z,39.27
2023-06-06T14:17:49.034Z,38.50
2023-06-06T14:19:52.393Z,38.65
2023-06-06T14:22:11.505Z,38.55
2023-06-06T14:24:14.723Z,39.58
2023-06-06T14:26:23.732Z,38.10
2023-06-06T14:28:26.611Z,38.28
2023-06-06T14:30:29.416Z,38.01
2023-06-06T14:32:33.598Z,38.21
2023-06-06T14:34:36.951Z,38.67
2023-06-06T14:36:39.664Z,38.42
2023-06-06T14:38:42.474Z,39.19
2023-06-06T14:40:45.510Z,39.84
2023-06-06T14:42:48.199Z,41.17
2023-06-06T14:44:54.455Z,39.92
2023-06-06T14:46:57.413Z,40.62
2023-06-06T14:49:00.266Z,41.73
2023-06-06T14:51:03.047Z,42.11
2023-06-06T14:53:06.002Z,41.76
2023-06-06T14:55:09.316Z,42.71
2023-06-06T14:57:13.194Z,42.48
2023-06-06T14:59:16.173Z,42.60
2023-06-06T15:01:19.389Z,42.76
2023-06-06T15:03:22.490Z,43.13
2023-06-06T15:05:25.756Z,42.80
2023-06-06T15:07:28.602Z,43.06
2023-06-06T15:09:35.935Z,42.39
2023-06-06T15:11:38.916Z,42.04
2023-06-06T15:13:42.043Z,42.34
2023-06-06T15:15:45.148Z,42.54
2023-06-06T15:17:48.408Z,42.62
2023-06-06T15:19:51.277Z,43.30
2023-06-06T15:21:54.320Z,44.27
2023-06-06T15:23:58.938Z,43.68
2023-06-06T15:26:03.417Z,43.84
2023-06-06T15:28:06.654Z,43.78
2023-06-06T15:30:10.801Z,44.03
2023-06-06T15:32:13.897Z,43.50
2023-06-06T15:34:17.044Z,44.00
2023-06-06T15:36:19.829Z,43.62
2023-06-06T15:38:25.249Z,43.73
2023-06-06T15:40:28.785Z,43.64
2023-06-06T15:42:31.551Z,43.75
2023-06-06T15:44:34.574Z,44.10
2023-06-06T15:46:41.023Z,44.47
2023-06-06T15:48:44.099Z,44.38
2023-06-06T15:50:47.143Z,43.68
2023-06-06T15:52:51.582Z,43.78
2023-06-06T15:54:54.794Z,43.10
2023-06-06T15:56:57.947Z,43.13
2023-06-06T15:59:01.609Z,42.29
2023-06-06T16:01:04.414Z,42.27
2023-06-06T16:03:07.293Z,42.96
2023-06-06T16:05:10.899Z,42.81
2023-06-06T16:07:14.653Z,42.68
2023-06-06T16:09:17.580Z,42.85
2023-06-06T16:11:20.922Z,43.87
2023-06-06T16:13:23.772Z,43.51
2023-06-06T16:15:26.643Z,43.75
2023-06-06T16:17:29.637Z,43.47
2023-06-06T16:19:32.956Z,43.66
2023-06-06T16:21:38.500Z,44.03
2023-06-06T16:23:41.624Z,43.81
2023-06-06T16:25:45.723Z,44.06
2023-06-06T16:27:48.513Z,43.99
2023-06-06T16:29:51.313Z,44.24
2023-06-06T16:31:54.089Z,44.54
2023-06-06T16:33:57.196Z,44.19
2023-06-06T16:36:01.139Z,44.41
2023-06-06T16:38:03.918Z,44.24
2023-06-06T16:40:07.434Z,44.54
2023-06-06T16:42:11.232Z,44.75
2023-06-06T16:44:16.383Z,44.52
2023-06-06T16:46:19.203Z,45.07
2023-06-06T16:48:22.004Z,44.99
2023-06-06T16:50:24.934Z,45.25
2023-06-06T16:52:27.817Z,45.09
2023-06-06T16:54:32.079Z,45.57
2023-06-06T16:56:35.125Z,45.48
2023-06-06T16:58:37.989Z,45.60
2023-06-06T17:00:43.235Z,45.69
2023-06-06T17:02:49.901Z,46.20
2023-06-06T17:04:54.456Z,46.45
2023-06-06T17:06:57.867Z,46.41
2023-06-06T17:09:02.318Z,46.63
2023-06-06T17:11:05.262Z,47.02
2023-06-06T17:13:08.153Z,47.86
2023-06-06T17:15:11.876Z,47.47
2023-06-06T17:17:15.440Z,47.63
2023-06-06T17:19:18.761Z,47.68
2023-06-06T17:21:23.082Z,48.02
2023-06-06T17:23:26.454Z,48.02
2023-06-06T17:25:42.060Z,48.42
2023-06-06T17:27:53.025Z,48.35
2023-06-06T17:29:56.239Z,48.63
2023-06-06T17:31:59.478Z,48.75
2023-06-06T17:34:02.447Z,49.05
2023-06-06T17:36:05.882Z,49.10
2023-06-06T17:38:08.864Z,49.52
2023-06-06T17:40:12.878Z,49.23
2023-06-06T17:42:17.363Z,49.43
2023-06-06T17:44:20.416Z,49.30
2023-06-06T17:46:23.214Z,49.53
2023-06-06T17:48:26.493Z,49.65
2023-06-06T17:50:30.041Z,50.07
2023-06-06T17:52:32.996Z,50.57
2023-06-06T17:54:36.072Z,50.75
2023-06-06T17:56:38.855Z,51.04
2023-06-06T17:58:41.926Z,51.30
2023-06-06T18:00:44.704Z,51.40
2023-06-06T18:02:47.693Z,51.52
2023-06-06T18:04:50.741Z,51.64
2023-06-06T18:06:54.232Z,51.62
2023-06-06T18:08:57.232Z,51.71
2023-06-06T18:11:00.234Z,51.75
2023-06-06T18:13:05.230Z,50.99
2023-06-06T18:15:09.061Z,51.62
2023-06-06T18:17:11.855Z,51.45
2023-06-06T18:19:14.898Z,51.26
2023-06-06T18:21:18.928Z,51.30
2023-06-06T18:23:23.722Z,51.24
2023-06-06T18:25:26.987Z,50.95
2023-06-06T18:27:29.736Z,51.17
2023-06-06T18:29:32.564Z,50.96
2023-06-06T18:31:38.808Z,51.06
2023-06-06T18:33:42.531Z,51.03
2023-06-06T18:35:45.772Z,51.45
2023-06-06T18:37:48.663Z,51.39
2023-06-06T18:39:53.356Z,51.61
2023-06-06T18:41:56.111Z,52.08
2023-06-06T18:43:58.905Z,52.27
2023-06-06T18:46:01.794Z,52.51
2023-06-06T18:48:05.903Z,52.99
2023-06-06T18:50:09.066Z,53.01
2023-06-06T18:52:12.909Z,53.36
2023-06-06T18:54:15.924Z,53.51
2023-06-06T18:56:19.212Z,53.71
2023-06-06T18:58:21.944Z,53.74
2023-06-06T19:00:24.714Z,53.94
2023-06-06T19:02:27.522Z,53.89
2023-06-06T19:04:30.342Z,53.96
2023-06-06T19:06:33.127Z,54.00
2023-06-06T19:08:36.318Z,54.33
2023-06-06T19:10:39.170Z,54.70
2023-06-06T19:14:47.569Z,55.85
2023-06-06T19:16:50.614Z,56.33
2023-06-06T19:18:53.554Z,57.20
2023-06-06T19:20:56.620Z,58.07
2023-06-06T19:22:59.705Z,58.95
2023-06-06T19:25:02.619Z,59.71
2023-06-06T19:27:06.395Z,59.99
2023-06-06T19:29:09.181Z,60.42
2023-06-06T19:31:13.763Z,60.92
2023-06-06T19:33:18.429Z,60.79
2023-06-06T19:35:22.181Z,60.72
2023-06-06T19:37:25.026Z,60.65
2023-06-06T19:39:27.867Z,60.72
2023-06-06T19:41:31.097Z,61.28
2023-06-06T19:43:33.897Z,61.56
2023-06-06T19:45:36.823Z,61.94
2023-06-06T19:47:39.620Z,61.94
2023-06-06T19:49:42.799Z,62.56
2023-06-06T19:51:46.874Z,62.48
2023-06-06T19:53:50.403Z,62.28
2023-06-06T19:55:53.252Z,62.21
2023-06-06T19:57:56.152Z,61.96
2023-06-06T19:59:58.851Z,62.08
2023-06-06T20:02:02.664Z,62.13
2023-06-06T20:04:05.780Z,61.93
2023-06-06T20:06:10.250Z,62.12
2023-06-06T20:08:13.041Z,61.84
2023-06-06T20:10:16.076Z,62.07
2023-06-06T20:12:19.073Z,62.21
2023-06-06T20:14:22.571Z,62.11
2023-06-06T20:16:25.342Z,62.08
2023-06-06T20:18:28.144Z,62.27
2023-06-06T20:20:30.829Z,62.30
2023-06-06T20:22:33.877Z,62.23
2023-06-06T20:24:36.740Z,62.16
2023-06-06T20:26:39.549Z,61.95
2023-06-06T20:28:43.472Z,61.94
2023-06-06T20:30:48.358Z,62.27
2023-06-06T20:32:51.795Z,62.03
2023-06-06T20:34:54.600Z,61.70
2023-06-06T20:36:58.968Z,61.82
2023-06-06T20:39:01.910Z,61.78
2023-06-06T20:41:04.695Z,61.59
2023-06-06T20:43:07.530Z,61.53
2023-06-06T20:45:10.785Z,61.90
2023-06-06T20:47:16.669Z,62.11
2023-06-06T20:49:19.603Z,62.33
2023-06-06T20:51:22.531Z,62.81
2023-06-06T20:53:25.531Z,63.00
2023-06-06T20:55:28.405Z,63.46
2023-06-06T20:57:31.317Z,63.61
2023-06-06T20:59:34.217Z,63.80
2023-06-06T21:01:37.893Z,63.93
2023-06-06T21:03:41.031Z,63.95
2023-06-06T21:05:43.984Z,64.41
2023-06-06T21:07:47.820Z,64.63
2023-06-06T21:09:50.835Z,64.58
2023-06-06T21:11:54.682Z,64.51
2023-06-06T21:13:57.823Z,64.90
2023-06-06T21:16:02.286Z,64.89
2023-06-06T21:18:05.252Z,64.70
2023-06-06T21:20:09.611Z,65.22
2023-06-06T21:22:12.484Z,65.12
2023-06-06T21:24:15.429Z,65.11
2023-06-06T21:26:18.323Z,65.41
2023-06-06T21:28:21.106Z,65.15
2023-06-06T21:30:23.995Z,65.02
2023-06-06T21:32:26.992Z,65.39
2023-06-06T21:34:29.906Z,65.29
2023-06-06T21:36:32.703Z,65.28
2023-06-06T21:38:35.483Z,65.36
2023-06-06T21:40:38.629Z,65.44
2023-06-06T21:42:41.507Z,65.33
2023-06-06T21:44:44.604Z,65.50
2023-06-06T21:46:47.496Z,65.63
2023-06-06T21:48:50.317Z,65.47
2023-06-06T21:50:53.082Z,65.48
2023-06-06T21:52:56.168Z,65.39
2023-06-06T21:54:58.846Z,65.32
2023-06-06T21:57:01.720Z,65.34
2023-06-06T21:59:05.171Z,65.54
2023-06-06T22:01:08.359Z,65.75
2023-06-06T22:03:11.400Z,66.13
2023-06-06T22:05:14.440Z,66.32
2023-06-06T22:07:17.363Z,67.20
2023-06-06T22:09:20.297Z,67.15
2023-06-06T22:11:23.082Z,67.71
2023-06-06T22:13:26.295Z,68.01
2023-06-06T22:15:29.187Z,67.99
2023-06-06T22:17:32.067Z,67.81
2023-06-06T22:19:34.913Z,68.36
2023-06-06T22:21:37.833Z,68.48
2023-06-06T22:23:41.109Z,68.30
2023-06-06T22:25:51.883Z,68.48
2023-06-06T22:28:01.621Z,68.99
2023-06-06T22:30:06.084Z,69.26
2023-06-06T22:32:11.109Z,69.73
2023-06-06T22:34:14.108Z,69.85
2023-06-06T22:36:17.858Z,70.55
2023-06-06T22:38:20.645Z,70.80
2023-06-06T22:40:25.788Z,71.47
2023-06-06T22:42:29.066Z,71.70
2023-06-06T22:44:32.059Z,71.66
2023-06-06T22:46:34.958Z,71.53
2023-06-06T22:48:37.910Z,71.86
2023-06-06T22:50:40.807Z,71.79
2023-06-06T22:52:44.329Z,72.03
2023-06-06T22:54:47.246Z,72.36
2023-06-06T22:56:50.068Z,72.76
2023-06-06T22:58:53.047Z,73.28
2023-06-06T23:00:55.910Z,72.86
2023-06-06T23:02:58.892Z,72.92
2023-06-06T23:05:02.486Z,73.34
2023-06-06T23:07:10.764Z,73.89
2023-06-06T23:09:13.596Z,74.24
2023-06-06T23:11:16.488Z,73.83
2023-06-06T23:13:19.422Z,74.09
2023-06-06T23:15:23.586Z,74.39
2023-06-06T23:17:26.601Z,74.06
2023-06-06T23:19:29.307Z,74.19
2023-06-06T23:21:32.151Z,73.90
2023-06-06T23:23:34.947Z,73.74
2023-06-06T23:25:37.790Z,73.96
2023-06-06T23:27:41.367Z,73.66
2023-06-06T23:29:44.372Z,73.29
2023-06-06T23:31:47.209Z,73.27
2023-06-06T23:33:50.131Z,72.89
2023-06-06T23:35:53.424Z,73.14
2023-06-06T23:37:56.387Z,72.53
2023-06-06T23:39:59.154Z,72.59
2023-06-06T23:42:01.971Z,72.35
2023-06-06T23:44:05.039Z,72.40
2023-06-06T23:46:07.941Z,72.67
2023-06-06T23:48:10.876Z,72.51
2023-06-06T23:50:13.709Z,72.86
2023-06-06T23:52:16.453Z,73.16
2023-06-06T23:54:19.205Z,73.32
2023-06-06T23:56:22.661Z,73.64
2023-06-06T23:58:25.993Z,73.17
